LGAD

Andravida Air Base

Airport
ICAO code
LGAD
IATA Code
PYR
Summary
ICAO Region
EUR
ICAO Territory
Location

Andravida, Western Greece

Serving
Andravida
Elevation
55 ft
Coordinates
37° 55' 15" N , 21° 17' 33" E
KCC
Metar
LGAD 041220Z 17013KT CAVOK 19/09 Q1009

Andravida Air Base is a military airport operated by the Hellenic Air Force, located 1.5 nm from the town of Andravida in Elis, Greece.

Climatology

Warm mediterranean climate (Köppen climate classification Csa)

Runways

Designator Length Width Surface Rops
16/34 3139 45 ASP No/No

Airport map

Aerial View

SKYbrary Partners:

Safety knowledge contributed by: